createdAt,value
2022-10-20T00:00:07.305Z,1023.48
2022-10-20T00:01:07.387Z,1023.46
2022-10-20T00:02:08.085Z,1023.41
2022-10-20T00:03:07.306Z,1023.47
2022-10-20T00:04:08.187Z,1023.43
2022-10-20T00:05:07.257Z,1023.39
2022-10-20T00:06:07.292Z,1023.32
2022-10-20T00:07:07.288Z,1023.37
2022-10-20T00:08:08.018Z,1023.37
2022-10-20T00:09:07.267Z,1023.34
2022-10-20T00:10:07.172Z,1023.31
2022-10-20T00:11:07.255Z,1023.34
2022-10-20T00:12:07.096Z,1023.32
2022-10-20T00:13:07.182Z,1023.33
2022-10-20T00:14:07.124Z,1023.34
2022-10-20T00:15:07.119Z,1023.35
2022-10-20T00:16:07.126Z,1023.33
2022-10-20T00:17:07.036Z,1023.29
2022-10-20T00:18:07.244Z,1023.31
2022-10-20T00:19:07.394Z,1023.27
2022-10-20T00:20:07.219Z,1023.20
2022-10-20T00:21:07.012Z,1023.14
2022-10-20T00:22:07.002Z,1023.13
2022-10-20T00:23:06.981Z,1023.16
2022-10-20T00:24:06.980Z,1023.11
2022-10-20T00:25:06.968Z,1023.13
2022-10-20T00:26:07.002Z,1023.14
2022-10-20T00:27:06.964Z,1023.15
2022-10-20T00:28:06.982Z,1023.17
2022-10-20T00:29:06.927Z,1023.14
2022-10-20T00:30:06.880Z,1023.15
2022-10-20T00:31:06.902Z,1023.10
2022-10-20T00:32:06.879Z,1023.03
2022-10-20T00:33:06.938Z,1023.09
2022-10-20T00:34:06.921Z,1023.03
2022-10-20T00:35:06.993Z,1023.07
2022-10-20T00:36:06.801Z,1023.03
2022-10-20T00:37:06.810Z,1023.04
2022-10-20T00:38:06.799Z,1023.12
2022-10-20T00:39:06.783Z,1023.10
2022-10-20T00:40:06.741Z,1023.11
2022-10-20T00:41:06.893Z,1023.08
2022-10-20T00:42:06.721Z,1023.08
2022-10-20T00:43:06.764Z,1023.11
2022-10-20T00:44:06.676Z,1023.06
2022-10-20T00:45:06.653Z,1023.06
2022-10-20T00:46:06.684Z,1022.94
2022-10-20T00:47:06.688Z,1022.90
2022-10-20T00:48:06.655Z,1022.84
2022-10-20T00:49:06.691Z,1022.81
2022-10-20T00:50:06.675Z,1022.77
2022-10-20T00:51:06.626Z,1022.74
2022-10-20T00:52:06.658Z,1022.76
2022-10-20T00:53:06.563Z,1022.79
2022-10-20T00:54:06.544Z,1022.78
2022-10-20T00:55:06.560Z,1022.75
2022-10-20T00:56:06.611Z,1022.71
2022-10-20T00:57:06.532Z,1022.68
2022-10-20T00:58:06.623Z,1022.68
2022-10-20T00:59:06.692Z,1022.65
2022-10-20T01:00:06.471Z,1022.64
2022-10-20T01:01:06.462Z,1022.60
2022-10-20T01:02:06.566Z,1022.64
2022-10-20T01:03:06.427Z,1022.65
2022-10-20T01:04:06.459Z,1022.60
2022-10-20T01:05:06.438Z,1022.51
2022-10-20T01:06:06.435Z,1022.53
2022-10-20T01:07:06.363Z,1022.56
2022-10-20T01:08:06.464Z,1022.53
2022-10-20T01:09:06.684Z,1022.42
2022-10-20T01:10:06.371Z,1022.59
2022-10-20T01:11:06.299Z,1022.49
2022-10-20T01:12:06.326Z,1022.54
2022-10-20T01:13:06.345Z,1022.57
2022-10-20T01:14:06.257Z,1022.55
2022-10-20T01:15:06.307Z,1022.51
2022-10-20T01:16:06.317Z,1022.36
2022-10-20T01:17:06.266Z,1022.42
2022-10-20T01:18:06.196Z,1022.48
2022-10-20T01:19:06.226Z,1022.44
2022-10-20T01:20:06.158Z,1022.41
2022-10-20T01:21:06.173Z,1022.38
2022-10-20T01:22:06.148Z,1022.40
2022-10-20T01:23:06.128Z,1022.29
2022-10-20T01:24:06.125Z,1022.35
2022-10-20T01:25:06.112Z,1022.37
2022-10-20T01:26:06.126Z,1022.35
2022-10-20T01:27:06.098Z,1022.39
2022-10-20T01:28:06.084Z,1022.36
2022-10-20T01:29:06.182Z,1022.14
2022-10-20T01:30:06.110Z,1022.36
2022-10-20T01:31:06.977Z,1022.31
2022-10-20T01:32:06.001Z,1022.29
2022-10-20T01:33:06.008Z,1022.34
2022-10-20T01:34:06.029Z,1022.21
2022-10-20T01:35:06.001Z,1022.36
2022-10-20T01:36:05.930Z,1022.29
2022-10-20T01:37:05.961Z,1022.29
2022-10-20T01:38:05.980Z,1022.16
2022-10-20T01:39:05.900Z,1022.38
2022-10-20T01:40:05.946Z,1022.27
2022-10-20T01:41:06.612Z,1022.36
2022-10-20T01:42:05.969Z,1022.34
2022-10-20T01:43:05.884Z,1022.26
2022-10-20T01:44:05.855Z,1022.30
2022-10-20T01:45:05.853Z,1022.34
2022-10-20T01:46:05.816Z,1022.39
2022-10-20T01:47:05.842Z,1022.36
2022-10-20T01:48:05.852Z,1022.37
2022-10-20T01:49:05.834Z,1022.37
2022-10-20T01:50:05.780Z,1022.23
2022-10-20T01:51:06.574Z,1022.38
2022-10-20T01:52:05.734Z,1022.35
2022-10-20T01:53:05.757Z,1022.27
2022-10-20T01:54:05.748Z,1022.35
2022-10-20T01:55:05.703Z,1022.29
2022-10-20T01:56:05.780Z,1022.24
2022-10-20T01:57:05.653Z,1022.22
2022-10-20T01:58:05.633Z,1022.26
2022-10-20T01:59:05.693Z,1022.16
2022-10-20T02:00:05.659Z,1022.07
2022-10-20T02:01:05.719Z,1022.02
2022-10-20T02:02:05.622Z,1022.06
2022-10-20T02:03:05.607Z,1022.00
2022-10-20T02:04:05.639Z,1022.05
2022-10-20T02:05:05.535Z,1022.02
2022-10-20T02:06:05.582Z,1022.02
2022-10-20T02:07:05.620Z,1022.11
2022-10-20T02:08:05.504Z,1022.10
2022-10-20T02:09:05.588Z,1021.88
2022-10-20T02:10:05.506Z,1022.05
2022-10-20T02:11:05.805Z,1022.00
2022-10-20T02:12:05.520Z,1022.05
2022-10-20T02:13:06.295Z,1022.09
2022-10-20T02:14:05.434Z,1022.08
2022-10-20T02:15:05.797Z,1022.04
2022-10-20T02:16:05.555Z,1021.89
2022-10-20T02:17:05.596Z,1021.92
2022-10-20T02:18:05.609Z,1021.87
2022-10-20T02:19:06.188Z,1021.84
2022-10-20T02:20:05.821Z,1021.82
2022-10-20T02:21:06.098Z,1021.84
2022-10-20T02:22:05.424Z,1021.73
2022-10-20T02:23:05.819Z,1021.80
2022-10-20T02:24:05.838Z,1021.73
2022-10-20T02:25:06.789Z,1021.81
2022-10-20T02:26:06.414Z,1021.69
2022-10-20T02:27:05.718Z,1021.67
2022-10-20T02:28:05.349Z,1021.74
2022-10-20T02:29:05.294Z,1021.69
2022-10-20T02:30:06.469Z,1021.71
2022-10-20T02:31:05.307Z,1021.74
2022-10-20T02:32:05.359Z,1021.67
2022-10-20T02:33:05.666Z,1021.65
2022-10-20T02:34:05.854Z,1021.65
2022-10-20T02:35:06.791Z,1021.61
2022-10-20T02:36:05.702Z,1021.51
2022-10-20T02:37:05.315Z,1021.51
2022-10-20T02:38:05.352Z,1021.50
2022-10-20T02:39:06.551Z,1021.48
2022-10-20T02:40:05.152Z,1021.43
2022-10-20T02:41:06.230Z,1021.43
2022-10-20T02:42:05.982Z,1021.46
2022-10-20T02:43:05.130Z,1021.51
2022-10-20T02:44:05.152Z,1021.50
2022-10-20T02:45:06.251Z,1021.55
2022-10-20T02:46:06.916Z,1021.55
2022-10-20T02:47:06.709Z,1021.53
2022-10-20T02:48:07.599Z,1021.48
2022-10-20T02:49:05.176Z,1021.54
2022-10-20T02:50:05.792Z,1021.52
2022-10-20T02:51:04.941Z,1021.46
2022-10-20T02:52:05.334Z,1021.47
2022-10-20T02:53:05.028Z,1021.48
2022-10-20T02:54:05.209Z,1021.50
2022-10-20T02:55:06.008Z,1021.49
2022-10-20T02:56:05.669Z,1021.44
2022-10-20T02:57:04.920Z,1021.46
2022-10-20T02:58:06.052Z,1021.46
2022-10-20T02:59:06.107Z,1021.53
2022-10-20T03:00:07.986Z,1021.53
2022-10-20T03:01:04.952Z,1021.56
2022-10-20T03:02:06.773Z,1021.53
2022-10-20T03:03:04.861Z,1021.54
2022-10-20T03:04:06.039Z,1021.55
2022-10-20T03:05:05.177Z,1021.55
2022-10-20T03:06:04.802Z,1021.55
2022-10-20T03:07:05.721Z,1021.53
2022-10-20T03:08:04.916Z,1021.50
2022-10-20T03:09:05.635Z,1021.48
2022-10-20T03:10:04.924Z,1021.47
2022-10-20T03:11:04.870Z,1021.47
2022-10-20T03:12:04.940Z,1021.49
2022-10-20T03:13:04.736Z,1021.43
2022-10-20T03:14:04.637Z,1021.39
2022-10-20T03:15:05.489Z,1021.39
2022-10-20T03:16:06.114Z,1021.39
2022-10-20T03:17:04.673Z,1021.39
2022-10-20T03:18:06.040Z,1021.39
2022-10-20T03:19:07.141Z,1021.31
2022-10-20T03:20:04.575Z,1021.36
2022-10-20T03:21:04.850Z,1021.29
2022-10-20T03:22:05.551Z,1021.31
2022-10-20T03:23:04.786Z,1021.31
2022-10-20T03:24:04.874Z,1021.29
2022-10-20T03:25:04.515Z,1021.29
2022-10-20T03:26:04.623Z,1021.30
2022-10-20T03:27:05.299Z,1021.28
2022-10-20T03:28:04.931Z,1021.29
2022-10-20T03:29:04.492Z,1021.31
2022-10-20T03:30:04.538Z,1021.27
2022-10-20T03:31:04.608Z,1021.30
2022-10-20T03:32:05.196Z,1021.33
2022-10-20T03:33:04.764Z,1021.30
2022-10-20T03:34:04.395Z,1021.25
2022-10-20T03:35:04.339Z,1021.28
2022-10-20T03:36:04.425Z,1021.29
2022-10-20T03:37:04.312Z,1021.25
2022-10-20T03:38:05.288Z,1021.23
2022-10-20T03:39:04.629Z,1021.21
2022-10-20T03:40:04.556Z,1021.29
2022-10-20T03:41:04.431Z,1021.24
2022-10-20T03:42:05.223Z,1021.25
2022-10-20T03:43:04.686Z,1021.23
2022-10-20T03:44:04.788Z,1021.26
2022-10-20T03:45:04.297Z,1021.22
2022-10-20T03:46:04.256Z,1021.22
2022-10-20T03:47:05.011Z,1021.21
2022-10-20T03:48:04.159Z,1021.17
2022-10-20T03:49:04.178Z,1021.13
2022-10-20T03:51:04.588Z,1021.14
2022-10-20T03:52:04.181Z,1021.11
2022-10-20T03:53:04.079Z,1021.09
2022-10-20T03:54:04.594Z,1021.08
2022-10-20T03:55:04.100Z,1021.09
2022-10-20T03:56:04.044Z,1021.15
2022-10-20T03:57:06.991Z,1021.13
2022-10-20T03:58:04.050Z,1021.12
2022-10-20T04:00:04.033Z,1021.08
2022-10-20T04:01:03.967Z,1021.08
2022-10-20T04:02:04.078Z,1021.07
2022-10-20T04:03:04.000Z,1021.12
2022-10-20T04:04:03.975Z,1021.08
2022-10-20T04:05:03.942Z,1021.12
2022-10-20T04:06:03.900Z,1021.10
2022-10-20T04:07:03.941Z,1021.11
2022-10-20T04:08:03.975Z,1021.02
2022-10-20T04:09:06.158Z,1021.08
2022-10-20T04:10:04.113Z,1021.09
2022-10-20T04:11:04.002Z,1021.11
2022-10-20T04:12:03.862Z,1021.06
2022-10-20T04:13:06.370Z,1021.07
2022-10-20T04:14:03.879Z,1021.09
2022-10-20T04:15:03.787Z,1021.10
2022-10-20T04:16:04.486Z,1021.02
2022-10-20T04:17:03.782Z,1021.05
2022-10-20T04:18:03.911Z,1020.96
2022-10-20T04:19:03.859Z,1021.05
2022-10-20T04:20:04.188Z,1021.03
2022-10-20T04:21:03.719Z,1020.97
2022-10-20T04:22:03.669Z,1021.06
2022-10-20T04:23:03.677Z,1020.98
2022-10-20T04:24:03.740Z,1020.96
2022-10-20T04:25:03.650Z,1021.01
2022-10-20T04:26:04.527Z,1020.96
2022-10-20T04:27:03.677Z,1020.92
2022-10-20T04:28:03.642Z,1020.94
2022-10-20T04:29:03.675Z,1021.03
2022-10-20T04:30:03.675Z,1020.94
2022-10-20T04:31:03.660Z,1020.91
2022-10-20T04:32:03.637Z,1020.93
2022-10-20T04:33:04.102Z,1020.95
2022-10-20T04:34:03.925Z,1020.96
2022-10-20T04:35:03.606Z,1020.91
2022-10-20T04:36:03.497Z,1020.85
2022-10-20T04:37:03.905Z,1020.92
2022-10-20T04:38:03.549Z,1020.92
2022-10-20T04:39:03.608Z,1020.86
2022-10-20T04:40:03.557Z,1020.85
2022-10-20T04:41:04.268Z,1020.87
2022-10-20T04:42:03.427Z,1020.89
2022-10-20T04:43:03.508Z,1020.85
2022-10-20T04:44:03.468Z,1020.83
2022-10-20T04:45:03.429Z,1020.82
2022-10-20T04:46:07.066Z,1020.85
2022-10-20T04:47:04.450Z,1020.85
2022-10-20T04:48:03.338Z,1020.82
2022-10-20T04:49:03.357Z,1020.82
2022-10-20T04:50:03.450Z,1020.82
2022-10-20T04:51:03.380Z,1020.81
2022-10-20T04:52:03.519Z,1020.80
2022-10-20T04:53:03.286Z,1020.75
2022-10-20T04:54:03.236Z,1020.74
2022-10-20T04:55:03.550Z,1020.78
2022-10-20T04:56:03.202Z,1020.73
2022-10-20T04:57:03.300Z,1020.72
2022-10-20T04:58:03.279Z,1020.64
2022-10-20T04:59:03.244Z,1020.70
2022-10-20T05:00:03.862Z,1020.69
2022-10-20T05:01:03.210Z,1020.64
2022-10-20T05:02:03.281Z,1020.60
2022-10-20T05:03:03.193Z,1020.64
2022-10-20T05:04:03.371Z,1020.60
2022-10-20T05:05:03.100Z,1020.60
2022-10-20T05:06:03.089Z,1020.59
2022-10-20T05:07:03.722Z,1020.58
2022-10-20T05:08:03.081Z,1020.56
2022-10-20T05:09:03.237Z,1020.53
2022-10-20T05:10:03.101Z,1020.52
2022-10-20T05:11:03.208Z,1020.53
2022-10-20T05:12:03.042Z,1020.43
2022-10-20T05:13:03.451Z,1020.43
2022-10-20T05:14:04.832Z,1020.39
2022-10-20T05:15:03.200Z,1020.44
2022-10-20T05:16:03.662Z,1020.45
2022-10-20T05:17:05.256Z,1020.34
2022-10-20T05:18:04.291Z,1020.36
2022-10-20T05:19:03.483Z,1020.29
2022-10-20T05:20:03.555Z,1020.23
2022-10-20T05:21:09.074Z,1020.28
2022-10-20T05:22:04.276Z,1020.30
2022-10-20T05:23:03.361Z,1020.25
2022-10-20T05:24:02.861Z,1020.19
2022-10-20T05:25:24.409Z,1020.16
2022-10-20T05:26:03.964Z,1020.08
2022-10-20T05:27:03.553Z,1020.11
2022-10-20T05:28:04.258Z,1020.08
2022-10-20T05:29:02.991Z,1020.00
2022-10-20T05:30:03.243Z,1019.97
2022-10-20T05:31:02.801Z,1019.99
2022-10-20T05:32:03.427Z,1020.04
2022-10-20T05:33:02.885Z,1019.99
2022-10-20T05:34:03.349Z,1019.97
2022-10-20T05:35:02.746Z,1019.97
2022-10-20T05:36:02.825Z,1019.99
2022-10-20T05:37:02.659Z,1019.95
2022-10-20T05:38:02.631Z,1019.95
2022-10-20T05:39:02.648Z,1019.93
2022-10-20T05:40:02.703Z,1019.98
2022-10-20T05:41:02.781Z,1019.90
2022-10-20T05:42:02.635Z,1019.89
2022-10-20T05:43:02.718Z,1019.85
2022-10-20T05:44:02.807Z,1019.81
2022-10-20T05:45:02.581Z,1019.74
2022-10-20T05:46:02.521Z,1019.80
2022-10-20T05:47:02.549Z,1019.81
2022-10-20T05:48:03.118Z,1019.84
2022-10-20T05:49:02.588Z,1019.80
2022-10-20T05:50:02.948Z,1019.76
2022-10-20T05:51:02.718Z,1019.78
2022-10-20T05:52:03.129Z,1019.77
2022-10-20T05:53:03.249Z,1019.82
2022-10-20T05:54:03.096Z,1019.76
2022-10-20T05:55:02.579Z,1019.70
2022-10-20T05:56:02.707Z,1019.69
2022-10-20T05:57:02.699Z,1019.72
2022-10-20T05:58:02.508Z,1019.65
2022-10-20T05:59:02.541Z,1019.68
2022-10-20T06:00:03.434Z,1019.81
2022-10-20T06:01:03.269Z,1019.72
2022-10-20T06:02:02.602Z,1019.78
2022-10-20T06:03:03.309Z,1019.82
2022-10-20T06:04:03.170Z,1019.77
2022-10-20T06:05:02.604Z,1019.82
2022-10-20T06:06:02.429Z,1019.83
2022-10-20T06:07:02.881Z,1019.76
2022-10-20T06:08:02.300Z,1019.80
2022-10-20T06:09:02.919Z,1019.76
2022-10-20T06:10:02.235Z,1019.83
2022-10-20T06:11:02.893Z,1019.82
2022-10-20T06:12:02.721Z,1019.87
2022-10-20T06:13:02.321Z,1019.80
2022-10-20T06:14:02.630Z,1019.80
2022-10-20T06:15:02.971Z,1019.82
2022-10-20T06:16:03.571Z,1019.73
2022-10-20T06:17:02.672Z,1019.70
2022-10-20T06:18:02.073Z,1019.71
2022-10-20T06:19:03.020Z,1019.79
2022-10-20T06:20:02.430Z,1019.69
2022-10-20T06:21:02.630Z,1019.72
2022-10-20T06:22:05.490Z,1019.71
2022-10-20T06:23:02.134Z,1019.71
2022-10-20T06:24:02.059Z,1019.72
2022-10-20T06:25:02.025Z,1019.69
2022-10-20T06:26:02.124Z,1019.81
2022-10-20T06:27:02.093Z,1019.67
2022-10-20T06:28:02.022Z,1019.68
2022-10-20T06:29:04.705Z,1019.63
2022-10-20T06:30:01.897Z,1019.69
2022-10-20T06:31:02.104Z,1019.61
2022-10-20T06:32:01.972Z,1019.59
2022-10-20T06:33:01.977Z,1019.62
2022-10-20T06:34:01.947Z,1019.63
2022-10-20T06:35:01.827Z,1019.68
2022-10-20T06:36:02.036Z,1019.65
2022-10-20T06:37:02.664Z,1019.65
2022-10-20T06:38:01.823Z,1019.60
2022-10-20T06:39:01.804Z,1019.65
2022-10-20T06:40:01.737Z,1019.59
2022-10-20T06:41:02.579Z,1019.60
2022-10-20T06:42:01.735Z,1019.54
2022-10-20T06:43:01.719Z,1019.50
2022-10-20T06:44:01.935Z,1019.60
2022-10-20T06:45:01.763Z,1019.53
2022-10-20T06:46:01.814Z,1019.57
2022-10-20T06:47:01.642Z,1019.59
2022-10-20T06:48:01.705Z,1019.59
2022-10-20T06:49:01.628Z,1019.58
2022-10-20T06:50:01.805Z,1019.61
2022-10-20T06:51:01.689Z,1019.68
2022-10-20T06:52:01.770Z,1019.67
2022-10-20T06:53:01.620Z,1019.60
2022-10-20T06:54:01.597Z,1019.60
2022-10-20T06:55:01.697Z,1019.56
2022-10-20T06:56:02.427Z,1019.50
2022-10-20T06:57:01.588Z,1019.52
2022-10-20T06:58:01.571Z,1019.55
2022-10-20T06:59:01.541Z,1019.61
2022-10-20T07:00:01.480Z,1019.56
2022-10-20T07:01:02.648Z,1019.58
2022-10-20T07:02:01.533Z,1019.50
2022-10-20T07:03:01.601Z,1019.54
2022-10-20T07:04:01.477Z,1019.55
2022-10-20T07:05:01.448Z,1019.48
2022-10-20T07:06:01.430Z,1019.51
2022-10-20T07:07:01.403Z,1019.53
2022-10-20T07:08:02.278Z,1019.42
2022-10-20T07:09:01.555Z,1019.56
2022-10-20T07:10:01.389Z,1019.50
2022-10-20T07:11:01.360Z,1019.60
2022-10-20T07:12:02.769Z,1019.52
2022-10-20T07:13:01.301Z,1019.56
2022-10-20T07:14:01.443Z,1019.63
2022-10-20T07:15:01.309Z,1019.61
2022-10-20T07:16:01.570Z,1019.57
2022-10-20T07:17:01.304Z,1019.53
2022-10-20T07:18:01.333Z,1019.59
2022-10-20T07:19:01.469Z,1019.53
2022-10-20T07:20:01.619Z,1019.49
2022-10-20T07:21:01.292Z,1019.60
2022-10-20T07:22:01.508Z,1019.54
2022-10-20T07:23:01.301Z,1019.53
2022-10-20T07:24:01.165Z,1019.51
2022-10-20T07:25:01.245Z,1019.60
2022-10-20T07:26:02.085Z,1019.58
2022-10-20T07:27:01.708Z,1019.60
2022-10-20T07:28:02.290Z,1019.61
2022-10-20T07:29:01.300Z,1019.58
2022-10-20T07:30:01.353Z,1019.58
2022-10-20T07:31:01.194Z,1019.56
2022-10-20T07:32:02.243Z,1019.56
2022-10-20T07:33:01.147Z,1019.54
2022-10-20T07:34:12.933Z,1019.57
2022-10-20T07:35:02.748Z,1019.43
2022-10-20T07:36:02.730Z,1019.47
2022-10-20T07:37:01.234Z,1019.42
2022-10-20T07:38:01.206Z,1019.44
2022-10-20T07:39:01.237Z,1019.46
2022-10-20T07:40:01.645Z,1019.45
2022-10-20T07:41:01.863Z,1019.39
2022-10-20T07:42:01.122Z,1019.39
2022-10-20T07:43:00.930Z,1019.32
2022-10-20T07:44:00.956Z,1019.32
2022-10-20T07:45:01.064Z,1019.22
2022-10-20T07:46:01.366Z,1019.26
2022-10-20T07:47:01.087Z,1019.19
2022-10-20T07:48:01.067Z,1019.15
2022-10-20T07:49:24.035Z,1019.13
2022-10-20T07:50:02.011Z,1019.10
2022-10-20T07:51:00.927Z,1019.10
2022-10-20T07:52:01.039Z,1019.11
2022-10-20T07:53:01.005Z,1019.09
2022-10-20T07:54:00.906Z,1019.13
2022-10-20T07:55:12.478Z,1019.16
2022-10-20T07:56:02.079Z,1019.12
2022-10-20T07:57:00.970Z,1019.11
2022-10-20T07:58:00.930Z,1019.13
2022-10-20T07:59:00.941Z,1019.06
2022-10-20T08:00:01.701Z,1019.01
2022-10-20T08:01:01.090Z,1019.00
2022-10-20T08:02:01.372Z,1018.97
2022-10-20T08:03:00.899Z,1019.02
2022-10-20T08:04:00.985Z,1019.03
2022-10-20T08:05:00.636Z,1019.01
2022-10-20T08:06:00.604Z,1018.99
2022-10-20T08:07:00.533Z,1019.03
2022-10-20T08:08:00.631Z,1018.99
2022-10-20T08:09:00.522Z,1019.00
2022-10-20T08:10:00.492Z,1018.94
2022-10-20T08:11:00.553Z,1018.99
2022-10-20T08:12:00.489Z,1018.97
2022-10-20T08:13:00.448Z,1018.86
2022-10-20T08:14:00.423Z,1018.95
2022-10-20T08:15:00.584Z,1018.84
2022-10-20T08:16:02.103Z,1018.83
2022-10-20T08:17:07.374Z,1018.78
2022-10-20T08:18:00.417Z,1018.79
2022-10-20T08:19:01.914Z,1018.82
2022-10-20T08:20:03.562Z,1018.80
2022-10-20T08:21:00.405Z,1018.75
2022-10-20T08:22:00.304Z,1018.73
2022-10-20T08:23:00.305Z,1018.75
2022-10-20T08:24:00.285Z,1018.76
2022-10-20T08:25:00.339Z,1018.67
2022-10-20T08:26:00.419Z,1018.72
2022-10-20T08:27:00.238Z,1018.73
2022-10-20T08:28:00.286Z,1018.67
2022-10-20T08:29:00.366Z,1018.61
2022-10-20T08:30:22.502Z,1018.58
2022-10-20T08:31:01.506Z,1018.55
2022-10-20T08:32:00.166Z,1018.56
2022-10-20T08:33:00.200Z,1018.60
2022-10-20T08:34:01.699Z,1018.56
2022-10-20T08:35:00.138Z,1018.45
2022-10-20T08:36:00.402Z,1018.54
2022-10-20T08:37:00.117Z,1018.41
2022-10-20T08:38:00.066Z,1018.46
2022-10-20T08:39:03.512Z,1018.44
2022-10-20T08:40:01.279Z,1018.37
2022-10-20T08:41:00.089Z,1018.40
2022-10-20T08:42:08.935Z,1018.37
2022-10-20T08:43:01.523Z,1018.30
2022-10-20T08:43:59.992Z,1018.37
2022-10-20T08:45:00.975Z,1018.36
2022-10-20T08:46:00.026Z,1018.40
2022-10-20T08:47:00.134Z,1018.34
2022-10-20T08:48:01.564Z,1018.34
2022-10-20T08:49:00.122Z,1018.25
2022-10-20T08:49:59.919Z,1018.22
2022-10-20T08:51:00.163Z,1018.19
2022-10-20T08:52:00.025Z,1018.18
2022-10-20T08:52:59.902Z,1018.18
2022-10-20T08:53:59.934Z,1018.19
2022-10-20T08:55:00.221Z,1018.11
2022-10-20T08:56:00.753Z,1018.16
2022-10-20T08:57:00.017Z,1018.12
2022-10-20T08:57:59.901Z,1018.13
2022-10-20T08:58:59.953Z,1018.16
2022-10-20T09:00:00.025Z,1018.10
2022-10-20T09:01:00.164Z,1018.15
2022-10-20T09:02:00.025Z,1018.15
2022-10-20T09:03:02.886Z,1018.17
2022-10-20T09:04:06.380Z,1018.20
2022-10-20T09:05:02.125Z,1018.07
2022-10-20T09:06:00.693Z,1018.14
2022-10-20T09:06:59.904Z,1018.10
2022-10-20T09:07:59.856Z,1018.11
2022-10-20T09:09:00.602Z,1018.11
2022-10-20T09:10:00.734Z,1018.15
2022-10-20T09:10:59.883Z,1018.18
2022-10-20T09:11:59.755Z,1018.17
2022-10-20T09:13:00.020Z,1018.20
2022-10-20T09:14:00.599Z,1018.16
2022-10-20T09:14:59.628Z,1018.20
2022-10-20T09:16:00.490Z,1018.18
2022-10-20T09:17:01.107Z,1018.15
2022-10-20T09:17:59.516Z,1018.13
2022-10-20T09:18:59.517Z,1018.09
2022-10-20T09:19:59.528Z,1018.11
2022-10-20T09:20:59.484Z,1018.06
2022-10-20T09:21:59.520Z,1018.04
2022-10-20T09:23:01.338Z,1018.07
2022-10-20T09:24:00.209Z,1018.04
2022-10-20T09:24:59.509Z,1017.88
2022-10-20T09:25:59.449Z,1017.96
2022-10-20T09:27:00.229Z,1017.86
2022-10-20T09:27:59.440Z,1017.88
2022-10-20T09:29:12.535Z,1017.82
2022-10-20T09:30:00.417Z,1017.83
2022-10-20T09:30:59.372Z,1017.77
2022-10-20T09:32:07.735Z,1017.69
2022-10-20T09:33:00.602Z,1017.76
2022-10-20T09:33:59.360Z,1017.78
2022-10-20T09:34:59.279Z,1017.80
2022-10-20T09:35:59.333Z,1017.81
2022-10-20T09:36:59.264Z,1017.78
2022-10-20T09:37:59.535Z,1017.75
2022-10-20T09:38:59.348Z,1017.79
2022-10-20T09:39:59.406Z,1017.73
2022-10-20T09:40:59.456Z,1017.68
2022-10-20T09:41:59.468Z,1017.66
2022-10-20T09:42:59.414Z,1017.65
2022-10-20T09:43:59.182Z,1017.60
2022-10-20T09:44:59.488Z,1017.60
2022-10-20T09:45:59.455Z,1017.69
2022-10-20T09:46:59.374Z,1017.66
2022-10-20T09:47:59.155Z,1017.66
2022-10-20T09:48:59.160Z,1017.71
2022-10-20T09:50:01.117Z,1017.66
2022-10-20T09:50:59.151Z,1017.73
2022-10-20T09:51:59.076Z,1017.75
2022-10-20T09:52:59.221Z,1017.80
2022-10-20T09:53:59.146Z,1017.77
2022-10-20T09:54:59.176Z,1017.83
2022-10-20T09:55:59.338Z,1017.77
2022-10-20T09:56:59.119Z,1017.85
2022-10-20T09:57:59.337Z,1017.85
2022-10-20T09:58:59.065Z,1017.84
2022-10-20T10:00:01.377Z,1017.80
2022-10-20T10:01:00.162Z,1017.88
2022-10-20T10:01:59.074Z,1017.92
2022-10-20T10:02:59.158Z,1017.86
2022-10-20T10:03:59.010Z,1017.84
2022-10-20T10:04:59.153Z,1017.84
2022-10-20T10:05:59.071Z,1017.78
2022-10-20T10:06:58.946Z,1017.78
2022-10-20T10:07:59.145Z,1017.77
2022-10-20T10:08:59.311Z,1017.70
2022-10-20T10:10:00.393Z,1017.71
2022-10-20T10:10:59.057Z,1017.65
2022-10-20T10:11:58.875Z,1017.65
2022-10-20T10:12:59.772Z,1017.58
2022-10-20T10:13:59.507Z,1017.61
2022-10-20T10:14:59.787Z,1017.65
2022-10-20T10:15:58.727Z,1017.71
2022-10-20T10:16:58.693Z,1017.68
2022-10-20T10:17:59.742Z,1017.67
2022-10-20T10:18:59.558Z,1017.63
2022-10-20T10:19:58.643Z,1017.57
2022-10-20T10:20:59.598Z,1017.58
2022-10-20T10:21:58.995Z,1017.56
2022-10-20T10:22:59.802Z,1017.52
2022-10-20T10:24:02.426Z,1017.53
2022-10-20T10:24:59.878Z,1017.55
2022-10-20T10:26:02.361Z,1017.49
2022-10-20T10:27:02.914Z,1017.56
2022-10-20T10:27:59.521Z,1017.58
2022-10-20T10:29:01.566Z,1017.53
2022-10-20T10:29:59.646Z,1017.53
2022-10-20T10:30:58.664Z,1017.48
2022-10-20T10:31:58.784Z,1017.44
2022-10-20T10:32:58.748Z,1017.42
2022-10-20T10:33:58.551Z,1017.35
2022-10-20T10:34:58.848Z,1017.29
2022-10-20T10:35:58.847Z,1017.28
2022-10-20T10:37:03.318Z,1017.28
2022-10-20T10:38:01.138Z,1017.23
2022-10-20T10:39:00.345Z,1017.23
2022-10-20T10:39:58.390Z,1017.20
2022-10-20T10:40:58.619Z,1017.19
2022-10-20T10:42:59.018Z,1017.14
2022-10-20T10:43:58.543Z,1017.06
2022-10-20T10:44:58.741Z,1017.03
2022-10-20T10:45:58.332Z,1017.06
2022-10-20T10:46:58.427Z,1017.09
2022-10-20T10:47:58.326Z,1017.07
2022-10-20T10:49:00.867Z,1017.04
2022-10-20T10:51:15.787Z,1016.94
2022-10-20T10:52:11.871Z,1016.96
2022-10-20T10:53:11.910Z,1016.98
2022-10-20T10:54:12.007Z,1016.91
2022-10-20T10:55:17.346Z,1016.88
2022-10-20T10:56:12.879Z,1016.90
2022-10-20T10:57:12.692Z,1016.89
2022-10-20T10:58:11.778Z,1016.87
2022-10-20T10:59:11.809Z,1016.82
2022-10-20T11:00:11.783Z,1016.78
2022-10-20T11:01:11.780Z,1016.73
2022-10-20T11:02:13.545Z,1016.67
2022-10-20T11:03:12.187Z,1016.70
2022-10-20T11:04:11.769Z,1016.62
2022-10-20T11:05:11.926Z,1016.62
2022-10-20T11:06:11.919Z,1016.56
2022-10-20T11:07:15.741Z,1016.58
2022-10-20T11:08:12.461Z,1016.55
2022-10-20T11:09:12.185Z,1016.60
2022-10-20T11:10:12.262Z,1016.52
2022-10-20T11:11:15.790Z,1016.53
2022-10-20T11:12:13.441Z,1016.50
2022-10-20T11:13:14.174Z,1016.48
2022-10-20T11:14:12.260Z,1016.55
2022-10-20T11:15:13.909Z,1016.49
2022-10-20T11:16:12.222Z,1016.43
2022-10-20T11:17:11.694Z,1016.37
2022-10-20T11:18:12.093Z,1016.40
2022-10-20T11:19:12.612Z,1016.43
2022-10-20T11:20:11.835Z,1016.42
2022-10-20T11:21:12.404Z,1016.41
2022-10-20T11:22:14.025Z,1016.38
2022-10-20T11:23:11.585Z,1016.47
2022-10-20T11:24:12.618Z,1016.44
2022-10-20T11:25:11.523Z,1016.39
2022-10-20T11:26:11.405Z,1016.44
2022-10-20T11:27:11.482Z,1016.38
2022-10-20T11:28:11.396Z,1016.28
2022-10-20T11:29:11.379Z,1016.26
2022-10-20T11:30:11.339Z,1016.16
2022-10-20T11:31:11.861Z,1016.15
2022-10-20T11:32:11.335Z,1016.14
2022-10-20T11:33:11.339Z,1016.15
2022-10-20T11:34:11.326Z,1016.15
2022-10-20T11:35:11.277Z,1016.16
2022-10-20T11:36:11.484Z,1016.22
2022-10-20T11:37:11.848Z,1016.18
2022-10-20T11:38:11.458Z,1016.11
2022-10-20T11:39:11.521Z,1016.10
2022-10-20T11:40:11.802Z,1016.08
2022-10-20T11:41:11.509Z,1016.03
2022-10-20T11:42:11.772Z,1015.99
2022-10-20T11:43:11.306Z,1016.01
2022-10-20T11:44:11.933Z,1015.96
2022-10-20T11:45:11.855Z,1015.98
2022-10-20T11:46:11.781Z,1015.99
2022-10-20T11:47:11.671Z,1016.00
2022-10-20T11:48:11.431Z,1016.00
2022-10-20T11:49:11.270Z,1015.87
2022-10-20T11:50:11.215Z,1015.88
2022-10-20T11:51:11.394Z,1015.84
2022-10-20T11:52:11.182Z,1015.84
2022-10-20T11:53:11.154Z,1015.78
2022-10-20T11:54:11.086Z,1015.74
2022-10-20T11:55:11.870Z,1015.74
2022-10-20T11:56:11.024Z,1015.79
2022-10-20T11:57:10.986Z,1015.80
2022-10-20T11:58:10.975Z,1015.85
2022-10-20T11:59:11.958Z,1015.84
2022-10-20T12:00:11.991Z,1015.86
2022-10-20T12:01:11.014Z,1015.85
2022-10-20T12:02:11.442Z,1015.87
2022-10-20T12:03:12.413Z,1015.90
2022-10-20T12:04:11.505Z,1015.84
2022-10-20T12:05:12.495Z,1015.83
2022-10-20T12:06:11.911Z,1015.86
2022-10-20T12:07:11.179Z,1015.77
2022-10-20T12:08:28.692Z,1015.74
2022-10-20T12:09:12.460Z,1015.71